METAR Data
IDs: Format: Raw Decoded Include TAF

Data at: 1351 UTC 26 Feb 2021

KUGN 261255Z 20006KT 4SM BR CLR M04/M07 A3021 RMK AO2 SLP244 I1000 T10441067